Terminal Aerodrome Forecast
Issued by NWS Amarillo, TX

Home | Current Version | Previous Version | Text Only | Print | Product List | Glossary On
Versions: 1 2 3 4 5 6 7 8 9 10 11 12 13 14 15 16 17 18
000
FTUS44 KAMA 282300
TAFAMA
TAF
KAMA 282320Z 2900/2924 10008KT P6SM VCTS BKN060CB
      TEMPO 2900/2904 VRB25G35KT P6SM -TSRA BKN050CB
     FM290600 05008KT P6SM BKN120
     FM291400 36008KT P6SM SCT250=

USA.gov is the U.S. government's official web portal to all federal, state and local government web resources and services.